createdAt,value
2018-10-03T00:00:16.746Z,56.81
2018-10-03T00:02:45.916Z,56.95
2018-10-03T00:05:14.504Z,56.67
2018-10-03T00:07:43.113Z,56.57
2018-10-03T00:10:12.811Z,56.71
2018-10-03T00:12:41.469Z,56.68
2018-10-03T00:15:10.136Z,56.31
2018-10-03T00:17:38.904Z,56.41
2018-10-03T00:20:07.572Z,56.29
2018-10-03T00:22:36.171Z,56.64
2018-10-03T00:25:04.786Z,56.66
2018-10-03T00:27:33.430Z,56.89
2018-10-03T00:30:02.019Z,57.13
2018-10-03T00:32:30.643Z,57.49
2018-10-03T00:34:59.250Z,58.81
2018-10-03T00:37:27.808Z,58.83
2018-10-03T00:39:56.547Z,58.82
2018-10-03T00:42:25.123Z,58.85
2018-10-03T00:44:53.724Z,59.17
2018-10-03T00:47:22.400Z,58.41
2018-10-03T00:49:51.036Z,58.59
2018-10-03T00:52:19.697Z,58.41
2018-10-03T00:54:48.383Z,58.62
2018-10-03T00:57:16.975Z,58.48
2018-10-03T00:59:45.712Z,58.05
2018-10-03T01:02:14.564Z,58.35
2018-10-03T01:04:43.155Z,57.89
2018-10-03T01:07:12.031Z,57.68
2018-10-03T01:09:40.697Z,57.87
2018-10-03T01:12:09.276Z,57.58
2018-10-03T01:14:37.840Z,57.63
2018-10-03T01:17:06.747Z,57.51
2018-10-03T01:19:35.359Z,57.64
2018-10-03T01:22:03.944Z,57.17
2018-10-03T01:24:32.639Z,57.39
2018-10-03T01:27:01.268Z,58.02
2018-10-03T01:29:29.838Z,57.74
2018-10-03T01:31:58.468Z,57.28
2018-10-03T01:34:27.508Z,57.60
2018-10-03T01:36:56.088Z,57.88
2018-10-03T01:39:24.728Z,58.05
2018-10-03T01:41:53.379Z,57.76
2018-10-03T01:44:22.045Z,57.79
2018-10-03T01:46:50.671Z,57.74
2018-10-03T01:49:19.249Z,57.71
2018-10-03T01:51:47.952Z,57.71
2018-10-03T01:54:16.628Z,57.67
2018-10-03T01:56:45.630Z,57.71
2018-10-03T01:59:14.632Z,57.81
2018-10-03T02:01:43.605Z,57.14
2018-10-03T02:04:12.193Z,57.05
2018-10-03T02:06:40.765Z,56.79
2018-10-03T02:09:09.463Z,57.28
2018-10-03T02:11:38.071Z,57.38
2018-10-03T02:14:06.755Z,56.83
2018-10-03T02:16:35.784Z,57.05
2018-10-03T02:19:04.447Z,57.25
2018-10-03T02:21:33.007Z,56.54
2018-10-03T02:24:02.084Z,57.03
2018-10-03T02:26:30.672Z,56.85
2018-10-03T02:28:59.291Z,57.03
2018-10-03T02:31:27.900Z,57.15
2018-10-03T02:33:56.528Z,57.00
2018-10-03T02:36:25.100Z,57.37
2018-10-03T02:38:53.741Z,56.98
2018-10-03T02:41:22.324Z,56.80
2018-10-03T02:43:51.413Z,57.48
2018-10-03T02:46:20.040Z,57.41
2018-10-03T02:48:48.775Z,57.45
2018-10-03T02:51:17.382Z,57.75
2018-10-03T02:53:46.436Z,57.81
2018-10-03T02:56:15.044Z,58.18
2018-10-03T02:58:43.655Z,58.95
2018-10-03T03:01:12.361Z,59.63
2018-10-03T03:03:40.956Z,60.39
2018-10-03T03:06:10.124Z,61.01
2018-10-03T03:08:39.074Z,60.51
2018-10-03T03:11:07.836Z,60.91
2018-10-03T03:13:36.431Z,61.65
2018-10-03T03:16:05.063Z,61.15
2018-10-03T03:18:33.788Z,61.26
2018-10-03T03:21:02.912Z,61.44
2018-10-03T03:23:31.695Z,61.74
2018-10-03T03:26:00.315Z,62.08
2018-10-03T03:28:28.897Z,61.88
2018-10-03T03:30:57.595Z,62.04
2018-10-03T03:33:26.558Z,62.07
2018-10-03T03:35:55.151Z,61.61
2018-10-03T03:38:23.809Z,62.29
2018-10-03T03:40:52.494Z,62.69
2018-10-03T03:43:21.079Z,62.96
2018-10-03T03:45:49.759Z,63.29
2018-10-03T03:48:18.385Z,62.97
2018-10-03T03:50:46.975Z,63.18
2018-10-03T03:53:15.656Z,63.49
2018-10-03T03:55:44.636Z,63.26
2018-10-03T03:58:13.487Z,63.78
2018-10-03T04:00:42.120Z,63.25
2018-10-03T04:03:11.135Z,63.24
2018-10-03T04:05:39.823Z,63.71
2018-10-03T04:08:09.526Z,63.10
2018-10-03T04:10:38.169Z,63.17
2018-10-03T04:13:06.772Z,62.73
2018-10-03T04:15:35.520Z,62.12
2018-10-03T04:18:04.084Z,62.52
2018-10-03T04:20:32.669Z,62.29
2018-10-03T04:23:01.313Z,61.81
2018-10-03T04:25:30.268Z,61.56
2018-10-03T04:27:58.861Z,61.71
2018-10-03T04:30:27.539Z,61.99
2018-10-03T04:32:56.110Z,61.47
2018-10-03T04:35:25.195Z,61.81
2018-10-03T04:37:53.795Z,63.44
2018-10-03T04:40:22.441Z,64.13
2018-10-03T04:42:51.007Z,64.18
2018-10-03T04:45:19.900Z,64.47
2018-10-03T04:47:48.488Z,64.57
2018-10-03T04:50:17.068Z,64.61
2018-10-03T04:52:45.832Z,64.43
2018-10-03T04:55:14.445Z,64.48
2018-10-03T04:57:43.052Z,64.22
2018-10-03T05:00:12.052Z,64.11
2018-10-03T05:02:40.612Z,64.73
2018-10-03T05:05:09.195Z,64.67
2018-10-03T05:07:37.896Z,64.33
2018-10-03T05:10:06.664Z,64.39
2018-10-03T05:12:35.280Z,64.12
2018-10-03T05:15:04.311Z,64.59
2018-10-03T05:17:32.887Z,63.91
2018-10-03T05:20:01.593Z,64.00
2018-10-03T05:22:30.183Z,64.02
2018-10-03T05:24:58.809Z,64.32
2018-10-03T05:27:27.451Z,63.82
2018-10-03T05:29:56.285Z,63.95
2018-10-03T05:32:24.847Z,64.12
2018-10-03T05:34:53.451Z,63.99
2018-10-03T05:37:22.675Z,63.96
2018-10-03T05:39:51.249Z,64.28
2018-10-03T05:42:19.842Z,63.71
2018-10-03T05:44:48.587Z,63.75
2018-10-03T05:47:17.242Z,63.87
2018-10-03T05:49:46.430Z,64.24
2018-10-03T05:52:15.268Z,63.74
2018-10-03T05:54:43.863Z,63.85
2018-10-03T05:57:12.432Z,63.93
2018-10-03T05:59:41.167Z,63.61
2018-10-03T06:02:09.737Z,63.49
2018-10-03T06:04:38.356Z,63.79
2018-10-03T06:07:07.059Z,63.35
2018-10-03T06:09:35.672Z,62.96
2018-10-03T06:12:04.300Z,63.20
2018-10-03T06:14:33.428Z,63.19
2018-10-03T06:17:02.020Z,63.59
2018-10-03T06:19:30.600Z,63.35
2018-10-03T06:21:59.351Z,62.62
2018-10-03T06:24:27.963Z,62.54
2018-10-03T06:26:56.544Z,62.07
2018-10-03T06:29:25.324Z,63.06
2018-10-03T06:31:53.884Z,62.93
2018-10-03T06:34:22.588Z,62.57
2018-10-03T06:36:51.219Z,62.27
2018-10-03T06:39:19.840Z,63.83
2018-10-03T06:41:48.414Z,64.75
2018-10-03T06:44:17.023Z,65.31
2018-10-03T06:46:45.605Z,65.57
2018-10-03T06:49:14.328Z,66.07
2018-10-03T06:51:43.037Z,66.30
2018-10-03T06:54:11.601Z,66.46
2018-10-03T06:56:40.348Z,66.42
2018-10-03T06:59:09.114Z,67.40
2018-10-03T07:01:37.712Z,67.78
2018-10-03T07:04:06.908Z,68.40
2018-10-03T07:06:35.629Z,69.14
2018-10-03T07:09:05.319Z,70.10
2018-10-03T07:11:33.876Z,70.16
2018-10-03T07:14:02.535Z,70.61
2018-10-03T07:16:31.494Z,70.53
2018-10-03T07:19:00.353Z,70.87
2018-10-03T07:21:28.972Z,71.50
2018-10-03T07:23:57.521Z,71.02
2018-10-03T07:26:26.104Z,71.11
2018-10-03T07:28:54.759Z,71.95
2018-10-03T07:31:23.343Z,71.50
2018-10-03T07:33:52.040Z,71.93
2018-10-03T07:36:20.754Z,71.50
2018-10-03T07:38:49.354Z,71.56
2018-10-03T07:41:17.935Z,71.60
2018-10-03T07:43:46.635Z,71.71
2018-10-03T07:46:15.188Z,71.47
2018-10-03T07:48:43.911Z,71.39
2018-10-03T07:51:12.548Z,71.35
2018-10-03T07:53:41.167Z,71.02
2018-10-03T07:56:10.195Z,71.10
2018-10-03T07:58:38.924Z,70.80
2018-10-03T08:01:07.645Z,70.72
2018-10-03T08:03:36.217Z,70.26
2018-10-03T08:06:05.216Z,69.77
2018-10-03T08:08:34.161Z,69.83
2018-10-03T08:11:02.836Z,69.76
2018-10-03T08:13:32.093Z,69.90
2018-10-03T08:16:00.716Z,69.89
2018-10-03T08:18:29.300Z,69.19
2018-10-03T08:20:57.908Z,69.36
2018-10-03T08:23:26.481Z,68.53
2018-10-03T08:25:55.092Z,68.20
2018-10-03T08:28:23.967Z,68.27
2018-10-03T08:30:52.639Z,68.69
2018-10-03T08:33:21.705Z,68.48
2018-10-03T08:35:50.775Z,68.72
2018-10-03T08:38:19.378Z,68.20
2018-10-03T08:40:47.980Z,67.96
2018-10-03T08:43:16.637Z,67.08
2018-10-03T08:45:45.208Z,67.59
2018-10-03T08:48:13.796Z,66.89
2018-10-03T08:50:42.401Z,67.56
2018-10-03T08:53:10.955Z,67.30
2018-10-03T08:55:39.532Z,67.08
2018-10-03T08:58:08.298Z,66.21
2018-10-03T09:00:37.236Z,65.23
2018-10-03T09:03:05.913Z,64.09
2018-10-03T09:05:34.622Z,63.08
2018-10-03T09:08:09.012Z,62.71
2018-10-03T09:10:37.820Z,62.56
2018-10-03T09:13:06.379Z,60.54
2018-10-03T09:15:35.011Z,59.44
2018-10-03T09:18:04.039Z,59.22
2018-10-03T09:20:32.612Z,58.50
2018-10-03T09:23:01.189Z,58.51
2018-10-03T09:25:29.905Z,57.99
2018-10-03T09:27:58.497Z,57.73
2018-10-03T09:30:27.076Z,56.68
2018-10-03T09:32:55.762Z,55.87
2018-10-03T09:35:24.344Z,54.98
2018-10-03T09:37:52.933Z,55.15
2018-10-03T09:40:21.676Z,54.41
2018-10-03T09:42:50.251Z,53.94
2018-10-03T09:45:18.840Z,53.76
2018-10-03T09:47:47.481Z,54.20
2018-10-03T09:50:16.088Z,53.37
2018-10-03T09:52:44.663Z,52.88
2018-10-03T09:55:13.384Z,52.24
2018-10-03T09:57:42.005Z,51.94
2018-10-03T10:00:10.630Z,52.28
2018-10-03T10:02:39.275Z,51.84
2018-10-03T10:05:07.895Z,51.85
2018-10-03T10:07:36.484Z,51.72
2018-10-03T10:10:05.152Z,50.18
2018-10-03T10:12:33.719Z,48.30
2018-10-03T10:15:02.288Z,48.02
2018-10-03T10:17:30.952Z,47.97
2018-10-03T10:19:59.603Z,46.72
2018-10-03T10:22:28.192Z,45.64
2018-10-03T10:24:56.822Z,46.05
2018-10-03T10:27:25.447Z,45.68
2018-10-03T10:29:54.027Z,43.87
2018-10-03T10:32:23.149Z,43.47
2018-10-03T10:34:51.632Z,44.23
2018-10-03T10:37:20.204Z,44.04
2018-10-03T10:39:49.100Z,43.70
2018-10-03T10:42:17.680Z,42.64
2018-10-03T10:44:46.248Z,41.85
2018-10-03T10:47:14.952Z,42.25
2018-10-03T10:49:43.537Z,42.65
2018-10-03T10:52:12.106Z,43.00
2018-10-03T10:54:40.720Z,44.23
2018-10-03T10:57:09.328Z,44.44
2018-10-03T10:59:38.017Z,45.22
2018-10-03T11:02:06.621Z,44.53
2018-10-03T11:04:35.244Z,45.23
2018-10-03T11:07:04.316Z,44.56
2018-10-03T11:09:33.049Z,44.77
2018-10-03T11:12:01.629Z,43.74
2018-10-03T11:14:30.240Z,41.47
2018-10-03T11:16:58.984Z,41.82
2018-10-03T11:19:27.607Z,39.59
2018-10-03T11:21:56.187Z,36.81
2018-10-03T11:24:25.134Z,35.00
2018-10-03T11:26:53.597Z,34.55
2018-10-03T11:29:22.192Z,36.93
2018-10-03T11:31:51.368Z,38.43
2018-10-03T11:34:19.981Z,40.81
2018-10-03T11:36:48.615Z,41.19
2018-10-03T11:39:17.289Z,39.26
2018-10-03T11:41:45.876Z,35.34
2018-10-03T11:44:14.496Z,32.42
2018-10-03T11:46:43.131Z,29.62
2018-10-03T11:49:11.710Z,30.34
2018-10-03T11:51:40.336Z,30.86
2018-10-03T11:54:09.493Z,31.57
2018-10-03T11:56:38.112Z,34.13
2018-10-03T11:59:06.696Z,36.19
2018-10-03T12:01:35.647Z,38.17
2018-10-03T12:04:04.253Z,40.76
2018-10-03T12:06:32.877Z,40.73
2018-10-03T12:09:01.915Z,42.67
2018-10-03T12:11:30.519Z,43.77
2018-10-03T12:13:59.116Z,44.61
2018-10-03T12:16:27.816Z,45.02
2018-10-03T12:18:56.432Z,45.43
2018-10-03T12:21:24.979Z,44.81
2018-10-03T12:23:53.673Z,45.21
2018-10-03T12:26:22.280Z,46.04
2018-10-03T12:28:50.876Z,47.04
2018-10-03T12:31:19.544Z,46.73
2018-10-03T12:33:48.253Z,46.97
2018-10-03T12:36:17.558Z,47.90
2018-10-03T12:38:46.299Z,48.12
2018-10-03T12:41:14.917Z,48.15
2018-10-03T12:43:43.504Z,48.26
2018-10-03T12:46:12.125Z,48.69
2018-10-03T12:48:40.703Z,48.02
2018-10-03T12:51:09.297Z,48.40
2018-10-03T12:53:38.667Z,49.71
2018-10-03T12:56:07.288Z,49.15
2018-10-03T12:58:35.951Z,50.89
2018-10-03T13:01:04.751Z,50.84
2018-10-03T13:03:33.886Z,51.30
2018-10-03T13:06:02.460Z,51.32
2018-10-03T13:08:31.078Z,51.40
2018-10-03T13:10:59.665Z,51.58
2018-10-03T13:13:28.247Z,51.72
2018-10-03T13:15:56.999Z,51.86
2018-10-03T13:18:25.588Z,52.20
2018-10-03T13:20:54.171Z,52.04
2018-10-03T13:23:23.108Z,52.09
2018-10-03T13:25:51.708Z,52.22
2018-10-03T13:28:20.300Z,52.23
2018-10-03T13:30:49.000Z,51.28
2018-10-03T13:33:17.611Z,50.31
2018-10-03T13:35:46.210Z,50.44
2018-10-03T13:38:14.932Z,50.94
2018-10-03T13:40:43.568Z,51.08
2018-10-03T13:43:12.135Z,50.79
2018-10-03T13:45:41.114Z,50.93
2018-10-03T13:48:09.704Z,49.88
2018-10-03T13:50:38.312Z,49.88
2018-10-03T13:53:06.994Z,49.62
2018-10-03T13:55:35.576Z,49.90
2018-10-03T13:58:04.370Z,49.47
2018-10-03T14:00:33.143Z,49.65
2018-10-03T14:03:01.792Z,49.74
2018-10-03T14:05:30.363Z,49.57
2018-10-03T14:07:59.068Z,49.65
2018-10-03T14:10:27.654Z,49.48
2018-10-03T14:12:56.229Z,49.49
2018-10-03T14:15:25.238Z,49.31
2018-10-03T14:17:53.839Z,49.38
2018-10-03T14:20:22.455Z,49.33
2018-10-03T14:22:51.282Z,49.12
2018-10-03T14:25:19.920Z,49.34
2018-10-03T14:27:48.488Z,48.98
2018-10-03T14:30:17.997Z,48.90
2018-10-03T14:32:46.659Z,49.68
2018-10-03T14:35:16.328Z,49.76
2018-10-03T14:37:44.964Z,49.47
2018-10-03T14:40:13.618Z,49.99
2018-10-03T14:42:42.220Z,49.96
2018-10-03T14:45:11.273Z,49.43
2018-10-03T14:47:41.219Z,49.76
2018-10-03T14:50:11.204Z,49.68
2018-10-03T14:52:40.611Z,49.64
2018-10-03T14:55:10.089Z,49.09
2018-10-03T14:57:38.837Z,49.18
2018-10-03T15:00:09.749Z,49.33
2018-10-03T15:02:38.565Z,49.50
2018-10-03T15:05:08.392Z,48.81
2018-10-03T15:07:37.107Z,49.32
2018-10-03T15:10:07.408Z,49.68
2018-10-03T15:12:36.166Z,49.31
2018-10-03T15:15:06.736Z,50.00
2018-10-03T15:17:36.585Z,50.23
2018-10-03T15:20:06.704Z,50.01
2018-10-03T15:22:37.112Z,49.94
2018-10-03T15:25:05.751Z,50.32
2018-10-03T15:27:34.576Z,50.06
2018-10-03T15:30:03.876Z,50.35
2018-10-03T15:32:33.104Z,50.65
2018-10-03T15:35:03.417Z,50.84
2018-10-03T15:37:33.389Z,50.61
2018-10-03T15:40:03.747Z,50.96
2018-10-03T15:42:33.584Z,51.16
2018-10-03T15:45:03.413Z,50.52
2018-10-03T15:47:33.308Z,50.90
2018-10-03T15:50:03.576Z,50.63
2018-10-03T15:52:34.396Z,51.02
2018-10-03T15:55:05.239Z,50.96
2018-10-03T15:57:35.112Z,51.23
2018-10-03T16:00:04.656Z,50.86
2018-10-03T16:02:34.889Z,51.41
2018-10-03T16:05:03.728Z,51.12
2018-10-03T16:07:32.362Z,51.50
2018-10-03T16:10:01.047Z,51.62
2018-10-03T16:12:29.635Z,51.24
2018-10-03T16:14:58.204Z,51.58
2018-10-03T16:17:26.811Z,51.77
2018-10-03T16:19:55.392Z,52.18
2018-10-03T16:22:24.040Z,52.05
2018-10-03T16:24:52.656Z,52.00
2018-10-03T16:27:21.263Z,52.40
2018-10-03T16:29:49.840Z,52.26
2018-10-03T16:32:18.539Z,52.68
2018-10-03T16:34:47.130Z,52.72
2018-10-03T16:37:15.748Z,52.80
2018-10-03T16:39:44.403Z,53.00
2018-10-03T16:42:12.986Z,53.43
2018-10-03T16:44:41.592Z,53.33
2018-10-03T16:47:11.085Z,53.23
2018-10-03T16:49:39.829Z,53.54
2018-10-03T16:52:08.460Z,53.76
2018-10-03T16:54:37.088Z,54.31
2018-10-03T16:57:06.774Z,54.44
2018-10-03T16:59:35.540Z,54.10
2018-10-03T17:02:04.248Z,54.36
2018-10-03T17:04:32.832Z,54.72
2018-10-03T17:07:01.487Z,54.66
2018-10-03T17:09:30.471Z,54.55
2018-10-03T17:11:59.048Z,54.75
2018-10-03T17:14:35.516Z,55.50
2018-10-03T17:17:04.815Z,55.39
2018-10-03T17:19:33.971Z,55.80
2018-10-03T17:22:04.132Z,55.66
2018-10-03T17:24:34.303Z,55.78
2018-10-03T17:27:02.936Z,56.19
2018-10-03T17:29:31.514Z,56.32
2018-10-03T17:32:00.315Z,56.49
2018-10-03T17:34:28.908Z,56.24
2018-10-03T17:36:57.592Z,56.07
2018-10-03T17:39:27.128Z,56.16
2018-10-03T17:41:55.719Z,56.18
2018-10-03T17:44:24.951Z,56.32
2018-10-03T17:46:55.409Z,56.86
2018-10-03T17:49:24.008Z,57.01
2018-10-03T17:51:52.669Z,56.95
2018-10-03T17:54:22.189Z,57.48
2018-10-03T17:56:50.751Z,57.55
2018-10-03T17:59:19.327Z,57.58
2018-10-03T18:01:50.079Z,58.21
2018-10-03T18:04:18.868Z,58.34
2018-10-03T18:06:47.405Z,57.90
2018-10-03T18:09:16.157Z,58.34
2018-10-03T18:11:44.774Z,57.70
2018-10-03T18:14:13.348Z,58.67
2018-10-03T18:16:41.988Z,58.24
2018-10-03T18:19:10.572Z,58.89
2018-10-03T18:21:39.148Z,58.53
2018-10-03T18:24:07.926Z,59.09
2018-10-03T18:26:36.503Z,58.75
2018-10-03T18:29:05.208Z,58.79
2018-10-03T18:31:34.006Z,58.83
2018-10-03T18:34:02.588Z,59.45
2018-10-03T18:36:31.184Z,59.75
2018-10-03T18:38:59.902Z,59.46
2018-10-03T18:41:28.588Z,60.18
2018-10-03T18:43:57.190Z,59.68
2018-10-03T18:46:25.907Z,59.99
2018-10-03T18:48:54.483Z,60.38
2018-10-03T18:51:23.077Z,60.09
2018-10-03T18:53:52.254Z,60.24
2018-10-03T18:56:20.891Z,60.86
2018-10-03T18:58:49.540Z,60.55
2018-10-03T19:01:18.460Z,60.83
2018-10-03T19:03:47.364Z,60.59
2018-10-03T19:06:16.007Z,60.72
2018-10-03T19:08:44.712Z,60.92
2018-10-03T19:11:13.324Z,61.17
2018-10-03T19:13:42.125Z,60.69
2018-10-03T19:16:10.731Z,61.27
2018-10-03T19:18:39.300Z,61.35
2018-10-03T19:21:07.913Z,61.48
2018-10-03T19:23:36.620Z,61.64
2018-10-03T19:26:05.277Z,61.90
2018-10-03T19:28:33.851Z,61.53
2018-10-03T19:31:02.663Z,61.33
2018-10-03T19:33:31.319Z,61.81
2018-10-03T19:36:00.179Z,61.52
2018-10-03T19:38:28.833Z,61.88
2018-10-03T19:40:57.416Z,62.01
2018-10-03T19:43:26.029Z,62.00
2018-10-03T19:45:55.176Z,61.71
2018-10-03T19:48:23.819Z,61.50
2018-10-03T19:50:53.249Z,62.12
2018-10-03T19:53:27.819Z,62.32
2018-10-03T19:55:57.620Z,62.33
2018-10-03T19:58:26.203Z,62.67
2018-10-03T20:00:54.930Z,62.57
2018-10-03T20:03:24.980Z,62.98
2018-10-03T20:05:53.645Z,62.79
2018-10-03T20:08:23.428Z,62.69
2018-10-03T20:10:52.259Z,62.82
2018-10-03T20:13:21.308Z,62.76
2018-10-03T20:15:50.741Z,62.75
2018-10-03T20:18:20.053Z,62.52
2018-10-03T20:20:49.493Z,62.42
2018-10-03T20:23:18.453Z,62.61
2018-10-03T20:25:47.496Z,62.40
2018-10-03T20:28:16.388Z,62.23
2018-10-03T20:30:45.596Z,62.11
2018-10-03T20:33:14.328Z,61.77
2018-10-03T20:35:42.965Z,63.34
2018-10-03T20:38:11.623Z,63.64
2018-10-03T20:40:40.230Z,63.56
2018-10-03T20:43:08.875Z,63.84
2018-10-03T20:45:37.467Z,63.63
2018-10-03T20:48:06.314Z,62.90
2018-10-03T20:50:34.956Z,62.77
2018-10-03T20:53:03.675Z,63.12
2018-10-03T20:55:32.268Z,63.31
2018-10-03T20:58:00.848Z,63.31
2018-10-03T21:00:29.801Z,63.44
2018-10-03T21:02:58.658Z,62.94
2018-10-03T21:05:27.231Z,62.92
2018-10-03T21:07:56.229Z,63.36
2018-10-03T21:10:24.812Z,63.57
2018-10-03T21:12:53.418Z,63.17
2018-10-03T21:15:22.394Z,62.87
2018-10-03T21:17:50.988Z,63.01
2018-10-03T21:20:19.606Z,62.74
2018-10-03T21:22:48.361Z,62.92
2018-10-03T21:25:17.047Z,63.05
2018-10-03T21:27:45.649Z,63.12
2018-10-03T21:30:14.703Z,63.40
2018-10-03T21:32:43.308Z,63.78
2018-10-03T21:35:11.908Z,63.19
2018-10-03T21:37:41.239Z,63.17
2018-10-03T21:40:09.963Z,63.14
2018-10-03T21:42:38.597Z,63.72
2018-10-03T21:45:07.896Z,63.21
2018-10-03T21:47:36.577Z,63.54
2018-10-03T21:50:05.471Z,63.61
2018-10-03T21:52:34.107Z,63.29
2018-10-03T21:55:03.081Z,63.04
2018-10-03T21:57:32.091Z,62.73
2018-10-03T22:00:00.800Z,62.75
2018-10-03T22:02:29.503Z,63.16
2018-10-03T22:04:58.274Z,62.92
2018-10-03T22:07:26.908Z,62.71
2018-10-03T22:09:55.507Z,63.33
2018-10-03T22:12:24.097Z,62.71
2018-10-03T22:14:52.851Z,62.71
2018-10-03T22:17:23.379Z,62.85
2018-10-03T22:19:53.028Z,62.81
2018-10-03T22:22:21.649Z,63.07
2018-10-03T22:24:50.297Z,63.44
2018-10-03T22:27:19.056Z,63.20
2018-10-03T22:29:48.501Z,62.96
2018-10-03T22:32:17.230Z,62.94
2018-10-03T22:34:46.073Z,63.26
2018-10-03T22:37:14.702Z,62.89
2018-10-03T22:39:43.332Z,63.33
2018-10-03T22:42:12.407Z,63.24
2018-10-03T22:44:41.016Z,63.14
2018-10-03T22:47:09.636Z,63.17
2018-10-03T22:49:38.348Z,63.40
2018-10-03T22:52:07.068Z,63.19
2018-10-03T22:54:35.779Z,63.05
2018-10-03T22:57:04.816Z,63.11
2018-10-03T22:59:33.492Z,63.33
2018-10-03T23:02:02.080Z,63.32
2018-10-03T23:04:30.768Z,63.34
2018-10-03T23:06:59.336Z,62.99
2018-10-03T23:09:27.935Z,63.02
2018-10-03T23:11:56.616Z,62.75
2018-10-03T23:14:25.214Z,62.97
2018-10-03T23:16:53.891Z,63.19
2018-10-03T23:19:22.572Z,62.87
2018-10-03T23:21:51.188Z,63.22
2018-10-03T23:24:19.776Z,63.15
2018-10-03T23:26:48.452Z,62.74
2018-10-03T23:29:17.020Z,63.25
2018-10-03T23:31:45.728Z,63.00
2018-10-03T23:34:14.366Z,63.13
2018-10-03T23:36:43.048Z,63.08
2018-10-03T23:39:12.740Z,63.01
2018-10-03T23:41:41.600Z,63.28
2018-10-03T23:44:11.417Z,63.46
2018-10-03T23:46:40.068Z,63.53
2018-10-03T23:49:08.659Z,63.51
2018-10-03T23:51:37.236Z,63.67
2018-10-03T23:54:05.805Z,63.57
2018-10-03T23:56:34.524Z,63.52
2018-10-03T23:59:03.102Z,63.45
